Terminal Aerodrome Forecast
Issued by NWS

Home | Current Version | Previous Version | Text Only | Print | Product List | Glossary On
Versions: 1 2 3 4 5 6 7 8 9 10 11 12
000
FTUS44 KOUN 022320
TAFPNC
TAF
KPNC 022320Z 0300/0324 06010KT P6SM BKN200
     FM030600 08009KT P6SM BKN035 OVC100
      TEMPO 0306/0308 OVC030
     FM030800 09010KT 6SM -RA OVC035
     FM031600 11009KT 5SM -RA OVC015=

USA.gov is the U.S. government's official web portal to all federal, state and local government web resources and services.